createdAt,value
2022-10-07T00:01:13.546Z,4.10
2022-10-07T00:03:42.634Z,4.57
2022-10-07T00:06:14.435Z,5.10
2022-10-07T00:08:44.793Z,4.77
2022-10-07T00:11:15.032Z,4.43
2022-10-07T00:13:44.303Z,5.13
2022-10-07T00:16:16.200Z,3.53
2022-10-07T00:18:44.753Z,5.00
2022-10-07T00:21:15.043Z,4.60
2022-10-07T00:23:45.642Z,5.73
2022-10-07T00:26:15.618Z,4.53
2022-10-07T00:28:44.653Z,3.87
2022-10-07T00:31:16.093Z,4.37
2022-10-07T00:33:44.223Z,3.70
2022-10-07T00:36:17.063Z,4.83
2022-10-07T00:38:45.435Z,4.53
2022-10-07T00:41:19.369Z,4.07
2022-10-07T00:43:48.635Z,4.77
2022-10-07T00:46:27.439Z,3.80
2022-10-07T00:48:56.946Z,4.30
2022-10-07T00:51:25.527Z,4.80
2022-10-07T00:53:56.407Z,5.70
2022-10-07T00:56:27.114Z,5.57
2022-10-07T00:58:55.441Z,4.43
2022-10-07T01:01:25.573Z,4.57
2022-10-07T01:03:54.919Z,3.73
2022-10-07T01:06:23.835Z,4.27
2022-10-07T01:08:54.174Z,4.10
2022-10-07T01:11:40.519Z,4.63
2022-10-07T01:14:14.060Z,4.13
2022-10-07T01:16:52.702Z,4.57
2022-10-07T01:19:43.297Z,4.80
2022-10-07T01:22:22.043Z,5.20
2022-10-07T01:25:00.382Z,5.07
2022-10-07T01:27:31.489Z,4.33
2022-10-07T01:30:03.894Z,4.83
2022-10-07T01:32:37.080Z,4.40
2022-10-07T01:35:10.935Z,4.27
2022-10-07T01:37:44.577Z,4.60
2022-10-07T01:40:17.233Z,4.50
2022-10-07T01:42:47.795Z,3.70
2022-10-07T01:45:21.650Z,4.80
2022-10-07T01:47:50.575Z,4.43
2022-10-07T01:50:23.328Z,3.90
2022-10-07T01:53:16.746Z,4.57
2022-10-07T01:56:12.564Z,3.60
2022-10-07T01:59:04.789Z,4.90
2022-10-07T02:01:40.984Z,4.90
2022-10-07T02:04:20.665Z,4.00
2022-10-07T02:06:59.081Z,3.90
2022-10-07T02:09:33.301Z,4.33
2022-10-07T02:12:08.729Z,3.97
2022-10-07T02:14:44.523Z,3.53
2022-10-07T02:17:16.908Z,4.07
2022-10-07T02:19:49.285Z,3.70
2022-10-07T02:22:19.981Z,4.03
2022-10-07T02:24:49.453Z,5.37
2022-10-07T02:27:24.333Z,3.90
2022-10-07T02:29:58.288Z,3.60
2022-10-07T02:32:29.033Z,5.20
2022-10-07T02:35:03.293Z,4.43
2022-10-07T02:37:35.420Z,4.60
2022-10-07T02:40:09.658Z,3.67
2022-10-07T02:42:48.643Z,4.30
2022-10-07T02:45:26.820Z,4.60
2022-10-07T02:48:00.221Z,4.57
2022-10-07T02:50:37.547Z,4.20
2022-10-07T02:53:07.526Z,5.50
2022-10-07T02:55:36.892Z,5.47
2022-10-07T02:58:08.767Z,4.37
2022-10-07T03:00:44.480Z,5.20
2022-10-07T03:03:12.868Z,4.53
2022-10-07T03:05:41.962Z,4.43
2022-10-07T03:08:11.372Z,3.80
2022-10-07T03:10:40.633Z,4.33
2022-10-07T03:13:08.801Z,4.40
2022-10-07T03:15:42.521Z,4.00
2022-10-07T03:18:26.882Z,4.30
2022-10-07T03:20:56.483Z,3.90
2022-10-07T03:23:30.342Z,4.20
2022-10-07T03:26:00.815Z,4.37
2022-10-07T03:28:32.376Z,4.10
2022-10-07T03:31:08.531Z,4.77
2022-10-07T03:33:37.558Z,4.50
2022-10-07T03:36:06.521Z,4.37
2022-10-07T03:38:35.045Z,4.00
2022-10-07T03:41:04.738Z,4.37
2022-10-07T03:43:33.721Z,4.00
2022-10-07T03:46:02.503Z,4.53
2022-10-07T03:48:32.455Z,4.87
2022-10-07T03:51:00.533Z,5.00
2022-10-07T03:53:29.886Z,3.67
2022-10-07T03:55:58.458Z,3.73
2022-10-07T03:58:26.886Z,3.10
2022-10-07T04:01:05.770Z,4.27
2022-10-07T04:03:35.675Z,4.80
2022-10-07T04:06:05.443Z,3.90
2022-10-07T04:08:34.929Z,4.13
2022-10-07T04:11:04.881Z,4.53
2022-10-07T04:13:34.182Z,3.53
2022-10-07T04:16:09.417Z,3.80
2022-10-07T04:18:39.587Z,4.03
2022-10-07T04:21:07.681Z,4.90
2022-10-07T04:23:36.270Z,4.27
2022-10-07T04:26:09.566Z,4.33
2022-10-07T04:28:38.748Z,4.53
2022-10-07T04:31:08.867Z,5.00
2022-10-07T04:33:42.686Z,3.83
2022-10-07T04:36:13.070Z,4.10
2022-10-07T04:38:42.780Z,3.60
2022-10-07T04:41:11.434Z,3.83
2022-10-07T04:43:39.904Z,4.30
2022-10-07T04:46:10.872Z,3.50
2022-10-07T04:48:40.942Z,4.50
2022-10-07T04:51:11.367Z,3.67
2022-10-07T04:53:40.083Z,3.97
2022-10-07T04:56:09.891Z,4.33
2022-10-07T04:58:38.512Z,3.90
2022-10-07T05:01:10.723Z,3.63
2022-10-07T05:03:42.030Z,4.57
2022-10-07T05:06:10.819Z,3.70
2022-10-07T05:08:39.033Z,3.97
2022-10-07T05:11:07.306Z,4.30
2022-10-07T05:13:36.348Z,5.00
2022-10-07T05:16:04.799Z,4.13
2022-10-07T05:18:33.535Z,4.40
2022-10-07T05:21:06.657Z,5.60
2022-10-07T05:23:36.899Z,4.27
2022-10-07T05:26:08.423Z,4.23
2022-10-07T05:28:36.877Z,4.17
2022-10-07T05:31:06.962Z,4.37
2022-10-07T05:33:35.920Z,3.73
2022-10-07T05:36:06.681Z,4.07
2022-10-07T05:38:35.065Z,3.67
2022-10-07T05:41:05.699Z,4.63
2022-10-07T05:43:36.614Z,3.53
2022-10-07T05:46:07.230Z,4.20
2022-10-07T05:48:39.197Z,4.60
2022-10-07T05:51:10.255Z,4.60
2022-10-07T05:53:41.449Z,3.27
2022-10-07T05:56:12.375Z,4.43
2022-10-07T05:58:41.082Z,5.67
2022-10-07T06:01:14.975Z,5.00
2022-10-07T06:03:44.109Z,4.73
2022-10-07T06:06:13.640Z,5.40
2022-10-07T06:08:42.210Z,4.23
2022-10-07T06:11:31.278Z,4.60
2022-10-07T06:13:59.640Z,4.70
2022-10-07T06:16:28.322Z,3.87
2022-10-07T06:18:57.598Z,4.33
2022-10-07T06:21:28.903Z,4.33
2022-10-07T06:23:58.606Z,4.10
2022-10-07T06:26:26.658Z,5.13
2022-10-07T06:28:54.988Z,4.33
2022-10-07T06:31:25.775Z,4.57
2022-10-07T06:33:54.490Z,4.87
2022-10-07T06:36:23.253Z,5.13
2022-10-07T06:38:55.293Z,4.00
2022-10-07T06:41:24.421Z,5.53
2022-10-07T06:43:57.486Z,4.23
2022-10-07T06:46:25.886Z,4.23
2022-10-07T06:48:54.215Z,6.50
2022-10-07T06:51:23.545Z,4.60
2022-10-07T06:53:55.066Z,4.80
2022-10-07T06:56:23.374Z,4.93
2022-10-07T06:58:51.518Z,4.67
2022-10-07T07:01:20.446Z,3.57
2022-10-07T07:03:49.142Z,4.00
2022-10-07T07:06:17.292Z,4.17
2022-10-07T07:08:46.225Z,5.07
2022-10-07T07:11:33.604Z,5.10
2022-10-07T07:14:02.499Z,4.43
2022-10-07T07:16:31.288Z,4.10
2022-10-07T07:19:02.108Z,5.10
2022-10-07T07:21:31.020Z,3.13
2022-10-07T07:23:59.766Z,4.37
2022-10-07T07:26:29.525Z,3.97
2022-10-07T07:28:59.694Z,4.13
2022-10-07T07:31:29.461Z,3.23
2022-10-07T07:33:57.873Z,3.33
2022-10-07T07:36:27.027Z,3.80
2022-10-07T07:38:57.476Z,4.20
2022-10-07T07:41:27.426Z,3.07
2022-10-07T07:43:59.313Z,5.00
2022-10-07T07:46:30.748Z,4.70
2022-10-07T07:48:59.270Z,3.50
2022-10-07T07:51:27.677Z,4.80
2022-10-07T07:53:56.028Z,3.50
2022-10-07T07:56:24.723Z,4.57
2022-10-07T07:58:52.724Z,4.70
2022-10-07T08:01:22.615Z,5.63
2022-10-07T08:03:51.164Z,2.23
2022-10-07T08:06:21.097Z,3.47
2022-10-07T08:08:49.571Z,4.07
2022-10-07T08:11:19.567Z,4.73
2022-10-07T08:13:48.525Z,4.47
2022-10-07T08:16:19.364Z,5.23
2022-10-07T08:18:50.354Z,5.70
2022-10-07T08:21:23.539Z,4.93
2022-10-07T08:23:54.476Z,4.00
2022-10-07T08:26:23.456Z,3.70
2022-10-07T08:28:51.633Z,4.13
2022-10-07T08:31:20.840Z,4.03
2022-10-07T08:33:51.632Z,4.40
2022-10-07T08:36:22.620Z,5.57
2022-10-07T08:38:52.362Z,4.80
2022-10-07T08:41:37.982Z,3.60
2022-10-07T08:44:19.164Z,4.33
2022-10-07T08:46:56.621Z,4.37
2022-10-07T08:49:36.687Z,4.10
2022-10-07T08:52:15.822Z,4.30
2022-10-07T08:54:46.412Z,4.07
2022-10-07T08:57:22.292Z,4.37
2022-10-07T08:59:57.407Z,3.70
2022-10-07T09:02:32.491Z,3.60
2022-10-07T09:05:09.726Z,4.67
2022-10-07T09:07:48.435Z,4.07
2022-10-07T09:10:31.581Z,4.20
2022-10-07T09:13:03.336Z,3.83
2022-10-07T09:15:41.441Z,4.03
2022-10-07T09:18:17.614Z,4.83
2022-10-07T09:20:53.804Z,4.57
2022-10-07T09:23:25.162Z,4.17
2022-10-07T09:25:53.825Z,4.30
2022-10-07T09:28:27.324Z,4.70
2022-10-07T09:30:56.485Z,4.30
2022-10-07T09:33:26.380Z,4.33
2022-10-07T09:35:58.066Z,4.00
2022-10-07T09:38:37.589Z,3.13
2022-10-07T09:41:18.002Z,3.43
2022-10-07T09:43:59.887Z,3.90
2022-10-07T09:46:37.522Z,4.00
2022-10-07T09:49:07.351Z,4.30
2022-10-07T09:51:40.630Z,4.57
2022-10-07T09:54:22.187Z,3.97
2022-10-07T09:56:57.751Z,3.93
2022-10-07T09:59:27.731Z,4.03
2022-10-07T10:01:58.966Z,4.70
2022-10-07T10:04:32.577Z,3.63
2022-10-07T10:07:06.941Z,4.00
2022-10-07T10:09:36.236Z,4.50
2022-10-07T10:12:16.493Z,4.50
2022-10-07T10:14:49.398Z,4.10
2022-10-07T10:17:31.491Z,4.30
2022-10-07T10:20:28.178Z,4.80
2022-10-07T10:22:58.933Z,3.93
2022-10-07T10:25:56.352Z,3.90
2022-10-07T10:28:36.912Z,4.30
2022-10-07T10:31:11.164Z,4.10
2022-10-07T10:33:47.275Z,4.53
2022-10-07T10:36:21.260Z,3.80
2022-10-07T10:39:02.066Z,4.37
2022-10-07T10:41:37.278Z,4.60
2022-10-07T10:44:23.962Z,4.17
2022-10-07T10:47:01.381Z,3.90
2022-10-07T10:49:34.450Z,3.90
2022-10-07T10:52:26.862Z,4.63
2022-10-07T10:55:16.107Z,3.60
2022-10-07T10:58:00.430Z,3.83
2022-10-07T11:00:38.228Z,3.67
2022-10-07T11:03:32.276Z,3.77
2022-10-07T11:06:05.574Z,3.90
2022-10-07T11:08:38.589Z,4.20
2022-10-07T11:11:12.553Z,3.77
2022-10-07T11:13:46.987Z,4.33
2022-10-07T11:16:20.831Z,5.67
2022-10-07T11:18:53.314Z,5.73
2022-10-07T11:21:27.268Z,4.47
2022-10-07T11:24:02.318Z,4.60
2022-10-07T11:26:37.971Z,4.13
2022-10-07T11:29:20.113Z,4.30
2022-10-07T11:31:57.298Z,4.77
2022-10-07T11:34:36.348Z,4.00
2022-10-07T11:37:11.328Z,3.40
2022-10-07T11:39:40.321Z,4.70
2022-10-07T11:42:17.700Z,4.90
2022-10-07T11:44:55.961Z,5.00
2022-10-07T11:47:29.351Z,4.50
2022-10-07T11:50:03.332Z,4.97
2022-10-07T11:52:38.141Z,4.10
2022-10-07T11:55:10.494Z,4.63
2022-10-07T11:57:44.138Z,4.53
2022-10-07T12:00:26.710Z,4.70
2022-10-07T12:02:56.104Z,4.53
2022-10-07T12:05:58.213Z,4.60
2022-10-07T12:08:31.246Z,3.30
2022-10-07T12:11:44.318Z,5.27
2022-10-07T12:14:36.076Z,4.43
2022-10-07T12:17:22.650Z,4.50
2022-10-07T12:20:23.900Z,3.87
2022-10-07T12:23:49.004Z,4.50
2022-10-07T12:26:48.797Z,4.13
2022-10-07T12:30:02.222Z,3.90
2022-10-07T12:33:01.023Z,4.47
2022-10-07T12:35:54.049Z,4.80
2022-10-07T12:38:26.051Z,5.47
2022-10-07T12:41:25.021Z,4.60
2022-10-07T12:44:06.703Z,4.47
2022-10-07T12:46:50.993Z,4.13
2022-10-07T12:49:27.145Z,4.13
2022-10-07T12:51:58.843Z,4.17
2022-10-07T12:54:33.473Z,4.37
2022-10-07T12:57:03.922Z,4.60
2022-10-07T12:59:53.434Z,5.20
2022-10-07T13:03:07.388Z,4.10
2022-10-07T13:06:16.694Z,4.90
2022-10-07T13:09:30.057Z,4.57
2022-10-07T13:12:26.538Z,4.90
2022-10-07T13:15:05.532Z,5.00
2022-10-07T13:17:42.958Z,4.50
2022-10-07T13:20:27.422Z,3.83
2022-10-07T13:22:58.071Z,3.77
2022-10-07T13:25:26.576Z,4.30
2022-10-07T13:27:57.675Z,4.43
2022-10-07T13:30:40.606Z,3.90
2022-10-07T13:33:21.298Z,3.87
2022-10-07T13:35:50.290Z,5.03
2022-10-07T13:38:27.822Z,3.17
2022-10-07T13:41:02.500Z,3.67
2022-10-07T13:43:33.140Z,4.00
2022-10-07T13:46:05.489Z,4.33
2022-10-07T13:48:35.703Z,4.40
2022-10-07T13:51:05.183Z,4.23
2022-10-07T13:53:39.129Z,3.97
2022-10-07T13:56:18.153Z,4.43
2022-10-07T13:58:47.835Z,4.30
2022-10-07T14:01:20.181Z,5.00
2022-10-07T14:04:22.786Z,4.20
2022-10-07T14:06:57.989Z,4.63
2022-10-07T14:09:42.801Z,3.93
2022-10-07T14:12:15.202Z,5.50
2022-10-07T14:14:46.409Z,4.50
2022-10-07T14:17:25.042Z,4.40
2022-10-07T14:19:56.792Z,4.67
2022-10-07T14:22:30.575Z,5.07
2022-10-07T14:25:03.050Z,4.57
2022-10-07T14:27:54.981Z,4.20
2022-10-07T14:30:29.550Z,4.13
2022-10-07T14:33:30.227Z,4.30
2022-10-07T14:36:11.201Z,4.80
2022-10-07T14:38:39.976Z,4.13
2022-10-07T14:41:10.033Z,4.27
2022-10-07T14:43:41.639Z,3.77
2022-10-07T14:46:12.192Z,4.33
2022-10-07T14:48:40.515Z,3.90
2022-10-07T14:51:09.271Z,4.50
2022-10-07T14:53:38.793Z,5.50
2022-10-07T14:56:07.408Z,4.37
2022-10-07T14:58:37.029Z,3.80
2022-10-07T15:01:07.904Z,4.93
2022-10-07T15:03:36.437Z,4.20
2022-10-07T15:06:05.557Z,4.27
2022-10-07T15:08:33.859Z,4.73
2022-10-07T15:11:02.987Z,3.93
2022-10-07T15:13:31.207Z,5.07
2022-10-07T15:16:00.936Z,4.20
2022-10-07T15:18:29.161Z,4.00
2022-10-07T15:20:58.169Z,3.90
2022-10-07T15:23:28.335Z,4.27
2022-10-07T15:25:56.565Z,4.67
2022-10-07T15:28:24.803Z,3.80
2022-10-07T15:30:53.409Z,4.40
2022-10-07T15:33:23.263Z,4.20
2022-10-07T15:35:53.368Z,4.80
2022-10-07T15:38:21.780Z,4.27
2022-10-07T15:40:54.844Z,4.43
2022-10-07T15:43:23.214Z,4.10
2022-10-07T15:45:51.586Z,5.37
2022-10-07T15:48:23.400Z,4.63
2022-10-07T15:50:54.652Z,4.07
2022-10-07T15:53:24.239Z,4.50
2022-10-07T15:55:54.785Z,4.27
2022-10-07T15:58:24.764Z,4.47
2022-10-07T16:01:01.062Z,4.73
2022-10-07T16:03:33.630Z,4.60
2022-10-07T16:06:04.355Z,4.27
2022-10-07T16:08:33.323Z,4.90
2022-10-07T16:11:03.489Z,4.60
2022-10-07T16:13:31.919Z,4.97
2022-10-07T16:16:03.040Z,4.67
2022-10-07T16:18:36.588Z,5.67
2022-10-07T16:21:07.971Z,4.70
2022-10-07T16:23:37.710Z,4.67
2022-10-07T16:26:06.658Z,4.93
2022-10-07T16:29:02.236Z,5.13
2022-10-07T16:31:31.549Z,4.23
2022-10-07T16:34:00.302Z,4.10
2022-10-07T16:36:31.096Z,4.80
2022-10-07T16:39:00.746Z,5.07
2022-10-07T16:41:29.467Z,4.73
2022-10-07T16:43:58.362Z,4.63
2022-10-07T16:46:27.639Z,4.47
2022-10-07T16:48:56.445Z,4.50
2022-10-07T16:51:26.878Z,4.87
2022-10-07T16:54:01.726Z,4.00
2022-10-07T16:56:30.981Z,3.43
2022-10-07T16:59:01.217Z,5.00
2022-10-07T17:01:30.817Z,3.83
2022-10-07T17:04:00.862Z,4.17
2022-10-07T17:06:31.631Z,4.60
2022-10-07T17:09:04.690Z,4.43
2022-10-07T17:11:34.805Z,4.97
2022-10-07T17:14:05.747Z,5.33
2022-10-07T17:16:37.819Z,4.40
2022-10-07T17:19:07.517Z,4.30
2022-10-07T17:21:37.283Z,5.53
2022-10-07T17:24:07.745Z,4.77
2022-10-07T17:26:36.235Z,3.77
2022-10-07T17:29:06.784Z,4.20
2022-10-07T17:31:36.327Z,4.60
2022-10-07T17:34:04.596Z,4.03
2022-10-07T17:36:33.638Z,4.73
2022-10-07T17:39:02.279Z,4.70
2022-10-07T17:41:33.545Z,6.03
2022-10-07T17:44:04.887Z,4.63
2022-10-07T17:46:36.801Z,4.23
2022-10-07T17:49:05.523Z,3.67
2022-10-07T17:51:34.866Z,4.47
2022-10-07T17:54:05.222Z,3.70
2022-10-07T17:56:35.935Z,4.63
2022-10-07T17:59:05.536Z,5.43
2022-10-07T18:01:36.570Z,4.17
2022-10-07T18:04:07.247Z,4.43
2022-10-07T18:06:37.594Z,3.00
2022-10-07T18:09:09.519Z,4.17
2022-10-07T18:11:56.546Z,3.77
2022-10-07T18:14:42.585Z,3.73
2022-10-07T18:17:12.747Z,3.80
2022-10-07T18:19:41.382Z,4.40
2022-10-07T18:22:12.434Z,5.27
2022-10-07T18:24:40.825Z,4.57
2022-10-07T18:27:10.991Z,4.20
2022-10-07T18:29:40.022Z,4.97
2022-10-07T18:32:09.308Z,4.40
2022-10-07T18:34:37.929Z,4.50
2022-10-07T18:37:06.098Z,3.87
2022-10-07T18:39:34.660Z,4.10
2022-10-07T18:42:04.722Z,4.27
2022-10-07T18:44:34.600Z,4.37
2022-10-07T18:47:03.363Z,3.83
2022-10-07T18:49:31.533Z,4.90
2022-10-07T18:51:59.689Z,4.63
2022-10-07T18:54:28.160Z,4.00
2022-10-07T18:56:56.317Z,4.03
2022-10-07T18:59:24.525Z,5.03
2022-10-07T19:01:54.715Z,3.80
2022-10-07T19:04:22.984Z,4.50
2022-10-07T19:06:51.105Z,4.10
2022-10-07T19:09:21.824Z,4.43
2022-10-07T19:11:51.042Z,3.83
2022-10-07T19:14:18.697Z,3.87
2022-10-07T19:16:49.426Z,3.90
2022-10-07T19:19:21.895Z,4.50
2022-10-07T19:21:53.256Z,3.90
2022-10-07T19:24:42.201Z,3.93
2022-10-07T19:27:10.673Z,4.27
2022-10-07T19:29:38.940Z,3.93
2022-10-07T19:32:08.798Z,4.43
2022-10-07T19:34:38.902Z,4.17
2022-10-07T19:37:07.041Z,4.27
2022-10-07T19:39:35.576Z,3.73
2022-10-07T19:42:04.633Z,4.03
2022-10-07T19:44:33.679Z,3.70
2022-10-07T19:47:01.916Z,3.97
2022-10-07T19:49:30.191Z,4.57
2022-10-07T19:51:59.755Z,4.00
2022-10-07T19:54:28.486Z,3.87
2022-10-07T19:56:56.856Z,4.13
2022-10-07T19:59:25.288Z,3.47
2022-10-07T20:01:56.612Z,3.97
2022-10-07T20:04:27.512Z,5.13
2022-10-07T20:06:59.208Z,4.30
2022-10-07T20:09:29.105Z,4.27
2022-10-07T20:11:57.348Z,3.67
2022-10-07T20:14:25.948Z,4.67
2022-10-07T20:16:56.426Z,3.77
2022-10-07T20:19:25.263Z,3.77
2022-10-07T20:21:53.502Z,2.67
2022-10-07T20:24:21.675Z,3.17
2022-10-07T20:26:51.226Z,3.63
2022-10-07T20:29:24.686Z,3.47
2022-10-07T20:31:53.813Z,3.10
2022-10-07T20:34:22.444Z,2.60
2022-10-07T20:36:50.830Z,3.00
2022-10-07T20:39:38.007Z,2.37
2022-10-07T20:42:25.689Z,1.90
2022-10-07T20:44:54.699Z,1.67
2022-10-07T20:47:25.899Z,1.83
2022-10-07T20:49:56.630Z,1.27
2022-10-07T20:52:26.562Z,1.40
2022-10-07T20:54:55.479Z,1.50
2022-10-07T20:57:27.635Z,1.67
2022-10-07T20:59:56.472Z,1.60
2022-10-07T21:02:25.676Z,1.60
2022-10-07T21:04:53.978Z,1.33
2022-10-07T21:07:22.134Z,2.27
2022-10-07T21:09:50.532Z,2.70
2022-10-07T21:12:19.518Z,3.23
2022-10-07T21:14:49.939Z,2.60
2022-10-07T21:17:18.200Z,3.43
2022-10-07T21:19:46.562Z,3.20
2022-10-07T21:22:14.793Z,3.50
2022-10-07T21:24:42.903Z,2.97
2022-10-07T21:27:11.656Z,3.20
2022-10-07T21:29:41.403Z,2.97
2022-10-07T21:32:12.191Z,3.90
2022-10-07T21:34:40.620Z,3.07
2022-10-07T21:37:08.743Z,2.83
2022-10-07T21:39:38.670Z,3.30
2022-10-07T21:42:07.040Z,4.10
2022-10-07T21:44:35.729Z,3.40
2022-10-07T21:47:05.221Z,3.47
2022-10-07T21:49:35.044Z,3.50
2022-10-07T21:52:03.462Z,3.07
2022-10-07T21:54:31.604Z,2.70
2022-10-07T21:57:00.159Z,3.13
2022-10-07T21:59:28.397Z,2.80
2022-10-07T22:01:56.972Z,2.90
2022-10-07T22:04:29.700Z,2.30
2022-10-07T22:07:16.713Z,2.50
2022-10-07T22:09:45.058Z,3.10
2022-10-07T22:12:15.425Z,2.70
2022-10-07T22:14:44.682Z,2.93
2022-10-07T22:17:14.448Z,2.90
2022-10-07T22:19:42.613Z,3.10
2022-10-07T22:22:13.006Z,3.00
2022-10-07T22:24:42.550Z,2.63
2022-10-07T22:27:10.857Z,3.37
2022-10-07T22:29:39.808Z,2.83
2022-10-07T22:32:08.154Z,2.63
2022-10-07T22:34:53.792Z,2.87
2022-10-07T22:37:23.929Z,3.23
2022-10-07T22:39:52.151Z,2.70
2022-10-07T22:42:20.227Z,2.57
2022-10-07T22:44:48.591Z,3.07
2022-10-07T22:47:16.948Z,3.33
2022-10-07T22:49:45.140Z,3.37
2022-10-07T22:52:13.393Z,3.37
2022-10-07T22:54:43.278Z,2.70
2022-10-07T22:57:11.569Z,2.23
2022-10-07T22:59:40.201Z,2.73
2022-10-07T23:02:09.604Z,2.50
2022-10-07T23:04:37.930Z,2.53
2022-10-07T23:07:06.324Z,2.80
2022-10-07T23:09:34.759Z,2.73
2022-10-07T23:12:06.047Z,2.67
2022-10-07T23:14:34.328Z,2.90
2022-10-07T23:17:02.486Z,2.10
2022-10-07T23:19:31.139Z,2.87
2022-10-07T23:22:00.646Z,1.83
2022-10-07T23:24:29.156Z,2.40
2022-10-07T23:26:57.233Z,1.90
2022-10-07T23:29:27.431Z,2.03
2022-10-07T23:31:55.519Z,2.17
2022-10-07T23:34:23.929Z,2.17
2022-10-07T23:36:55.467Z,1.40
2022-10-07T23:39:24.075Z,2.20
2022-10-07T23:41:52.122Z,2.00
2022-10-07T23:44:20.518Z,2.03
2022-10-07T23:46:51.850Z,2.20
2022-10-07T23:49:20.067Z,1.90
2022-10-07T23:51:48.917Z,1.33
2022-10-07T23:54:17.292Z,2.00
2022-10-07T23:56:45.369Z,1.77
2022-10-07T23:59:13.670Z,2.23
